createdAt,value
2023-02-24T00:00:10.802Z,64.61
2023-02-24T00:01:10.790Z,66.23
2023-02-24T00:02:10.846Z,66.23
2023-02-24T00:03:10.864Z,63.00
2023-02-24T00:04:10.765Z,61.87
2023-02-24T00:05:10.766Z,64.61
2023-02-24T00:06:10.759Z,56.88
2023-02-24T00:07:10.782Z,56.72
2023-02-24T00:08:13.629Z,59.78
2023-02-24T00:09:12.554Z,65.42
2023-02-24T00:10:10.707Z,68.64
2023-02-24T00:11:11.708Z,62.84
2023-02-24T00:12:10.769Z,70.90
2023-02-24T00:13:10.687Z,68.96
2023-02-24T00:14:10.682Z,48.66
2023-02-24T00:15:10.690Z,61.55
2023-02-24T00:16:10.702Z,63.16
2023-02-24T00:17:10.802Z,57.85
2023-02-24T00:18:11.650Z,62.20
2023-02-24T00:19:10.644Z,63.33
2023-02-24T00:20:10.632Z,61.87
2023-02-24T00:21:10.647Z,56.72
2023-02-24T00:22:10.640Z,57.52
2023-02-24T00:23:10.617Z,66.71
2023-02-24T00:26:00.722Z,65.58
2023-02-24T00:27:00.717Z,64.45
2023-02-24T00:28:00.705Z,66.87
2023-02-24T00:29:00.696Z,62.20
2023-02-24T00:30:00.687Z,59.62
2023-02-24T00:31:00.781Z,63.00
2023-02-24T00:32:01.193Z,59.78
2023-02-24T00:33:00.722Z,61.71
2023-02-24T00:34:01.771Z,60.10
2023-02-24T00:35:01.747Z,64.78
2023-02-24T00:36:01.739Z,62.52
2023-02-24T00:37:01.730Z,57.85
2023-02-24T00:38:01.719Z,57.85
2023-02-24T00:39:01.717Z,54.95
2023-02-24T00:40:01.713Z,52.53
2023-02-24T00:41:01.711Z,66.23
2023-02-24T00:42:01.691Z,67.19
2023-02-24T00:43:01.708Z,70.42
2023-02-24T00:44:02.620Z,71.06
2023-02-24T00:45:01.669Z,66.23
2023-02-24T00:46:01.667Z,53.50
2023-02-24T00:47:01.647Z,59.46
2023-02-24T00:48:01.643Z,66.23
2023-02-24T00:49:01.628Z,69.77
2023-02-24T00:50:01.696Z,62.36
2023-02-24T00:51:01.624Z,65.26
2023-02-24T00:52:01.608Z,62.36
2023-02-24T00:53:01.606Z,62.36
2023-02-24T00:54:01.600Z,61.71
2023-02-24T00:55:01.609Z,53.82
2023-02-24T00:56:01.574Z,52.69
2023-02-24T00:57:02.105Z,69.13
2023-02-24T00:58:01.568Z,72.35
2023-02-24T00:59:01.564Z,61.71
2023-02-24T01:00:01.547Z,57.04
2023-02-24T01:01:01.540Z,38.99
2023-02-24T01:02:01.548Z,47.05
2023-02-24T01:03:01.517Z,62.68
2023-02-24T01:04:01.599Z,55.59
2023-02-24T01:05:01.501Z,62.68
2023-02-24T01:06:01.498Z,69.29
2023-02-24T01:07:01.496Z,73.48
2023-02-24T01:09:48.355Z,73.80
2023-02-24T01:10:49.470Z,62.84
2023-02-24T01:11:49.485Z,59.62
2023-02-24T01:12:49.653Z,62.36
2023-02-24T01:13:49.417Z,55.75
2023-02-24T01:14:49.417Z,62.36
2023-02-24T01:15:49.449Z,61.23
2023-02-24T01:16:49.391Z,64.94
2023-02-24T01:17:49.389Z,61.55
2023-02-24T01:18:49.377Z,63.33
2023-02-24T01:19:49.429Z,51.08
2023-02-24T01:20:49.363Z,60.59
2023-02-24T01:21:50.234Z,68.00
2023-02-24T01:22:49.373Z,65.58
2023-02-24T01:23:49.338Z,67.68
2023-02-24T01:24:49.342Z,52.37
2023-02-24T01:25:49.344Z,68.16
2023-02-24T01:26:49.322Z,62.36
2023-02-24T01:27:49.334Z,65.90
2023-02-24T01:28:49.309Z,68.80
2023-02-24T01:29:49.312Z,62.20
2023-02-24T01:30:49.292Z,41.89
2023-02-24T01:31:50.023Z,58.97
2023-02-24T01:32:50.471Z,61.71
2023-02-24T01:33:49.266Z,61.23
2023-02-24T01:34:49.264Z,48.98
2023-02-24T01:35:49.247Z,63.16
2023-02-24T01:36:49.252Z,53.33
2023-02-24T01:37:49.236Z,58.65
2023-02-24T01:38:49.236Z,60.42
2023-02-24T01:39:49.241Z,71.54
2023-02-24T01:40:49.220Z,51.72
2023-02-24T01:41:49.216Z,64.94
2023-02-24T01:42:49.197Z,65.58
2023-02-24T01:43:49.194Z,71.38
2023-02-24T01:44:49.198Z,63.33
2023-02-24T01:45:49.181Z,62.04
2023-02-24T01:46:49.777Z,71.38
2023-02-24T01:47:49.157Z,65.90
2023-02-24T01:48:49.148Z,64.94
2023-02-24T01:49:49.142Z,61.87
2023-02-24T01:50:49.141Z,60.10
2023-02-24T01:51:49.130Z,67.35
2023-02-24T01:52:49.137Z,64.29
2023-02-24T01:53:49.117Z,63.49
2023-02-24T01:54:49.106Z,69.29
2023-02-24T01:55:49.094Z,60.91
2023-02-24T01:56:49.081Z,61.07
2023-02-24T01:57:49.084Z,72.19
2023-02-24T01:58:49.067Z,62.20
2023-02-24T01:59:49.056Z,59.94
2023-02-24T02:00:49.089Z,62.20
2023-02-24T02:01:49.109Z,60.75
2023-02-24T02:02:49.098Z,60.75
2023-02-24T02:03:49.025Z,38.67
2023-02-24T02:04:49.034Z,65.26
2023-02-24T02:05:49.014Z,65.42
2023-02-24T02:06:49.022Z,46.73
2023-02-24T02:07:49.009Z,59.78
2023-02-24T02:08:48.986Z,58.17
2023-02-24T02:09:48.981Z,57.69
2023-02-24T02:10:48.983Z,70.74
2023-02-24T02:11:48.966Z,62.04
2023-02-24T02:12:48.967Z,57.36
2023-02-24T02:13:49.028Z,65.26
2023-02-24T02:14:48.955Z,64.78
2023-02-24T02:15:48.954Z,61.39
2023-02-24T02:16:48.920Z,58.49
2023-02-24T02:17:48.944Z,61.39
2023-02-24T02:18:48.918Z,59.46
2023-02-24T02:19:48.897Z,41.09
2023-02-24T02:20:48.899Z,60.59
2023-02-24T02:21:48.880Z,61.87
2023-02-24T02:22:48.873Z,57.85
2023-02-24T02:23:49.832Z,63.33
2023-02-24T02:24:48.856Z,73.15
2023-02-24T02:25:48.834Z,61.39
2023-02-24T02:26:49.852Z,57.52
2023-02-24T02:27:48.830Z,66.39
2023-02-24T02:28:48.817Z,65.26
2023-02-24T02:29:48.816Z,56.72
2023-02-24T02:30:48.839Z,55.59
2023-02-24T02:31:48.884Z,65.42
2023-02-24T02:32:48.888Z,54.30
2023-02-24T02:33:48.788Z,60.10
2023-02-24T02:34:48.780Z,59.94
2023-02-24T02:35:48.771Z,63.33
2023-02-24T02:36:48.761Z,61.71
2023-02-24T02:37:48.742Z,62.20
2023-02-24T02:38:48.781Z,58.49
2023-02-24T02:39:48.739Z,41.25
2023-02-24T02:40:48.730Z,61.55
2023-02-24T02:41:48.729Z,64.29
2023-02-24T02:42:48.708Z,42.38
2023-02-24T02:43:48.706Z,56.24
2023-02-24T02:44:48.689Z,63.49
2023-02-24T02:45:48.712Z,66.23
2023-02-24T02:46:48.676Z,55.43
2023-02-24T02:47:48.664Z,53.98
2023-02-24T02:48:48.666Z,60.75
2023-02-24T02:49:48.646Z,64.45
2023-02-24T02:50:48.634Z,62.68
2023-02-24T02:51:48.629Z,66.06
2023-02-24T02:52:48.626Z,65.26
2023-02-24T02:53:48.617Z,62.20
2023-02-24T02:54:48.612Z,68.96
2023-02-24T02:55:52.272Z,68.48
2023-02-24T02:56:50.329Z,62.68
2023-02-24T02:57:48.580Z,63.97
2023-02-24T02:58:48.584Z,63.49
2023-02-24T02:59:52.247Z,55.59
2023-02-24T03:00:48.584Z,62.20
2023-02-24T03:01:48.566Z,56.07
2023-02-24T03:02:48.539Z,66.39
2023-02-24T03:03:48.533Z,61.87
2023-02-24T03:04:48.616Z,60.59
2023-02-24T03:05:48.515Z,59.30
2023-02-24T03:06:48.508Z,73.64
2023-02-24T03:07:48.504Z,62.20
2023-02-24T03:08:48.504Z,67.35
2023-02-24T03:09:48.494Z,58.97
2023-02-24T03:10:48.513Z,66.06
2023-02-24T03:11:50.311Z,61.23
2023-02-24T03:12:48.457Z,61.71
2023-02-24T03:13:48.460Z,66.06
2023-02-24T03:14:48.446Z,56.24
2023-02-24T03:15:48.457Z,58.33
2023-02-24T03:16:48.477Z,69.93
2023-02-24T03:17:48.420Z,62.52
2023-02-24T03:18:48.415Z,58.65
2023-02-24T03:19:48.407Z,61.71
2023-02-24T03:20:48.409Z,42.70
2023-02-24T03:21:48.393Z,59.78
2023-02-24T03:22:48.390Z,57.85
2023-02-24T03:23:48.385Z,68.16
2023-02-24T03:24:48.371Z,63.16
2023-02-24T03:25:48.371Z,57.69
2023-02-24T03:26:48.354Z,60.10
2023-02-24T03:27:48.350Z,49.63
2023-02-24T03:28:48.340Z,41.25
2023-02-24T03:29:48.332Z,65.58
2023-02-24T03:30:48.396Z,63.97
2023-02-24T03:31:48.441Z,54.46
2023-02-24T03:32:48.389Z,53.01
2023-02-24T03:33:48.300Z,51.56
2023-02-24T03:34:48.287Z,60.10
2023-02-24T03:35:48.290Z,63.81
2023-02-24T03:36:48.270Z,58.65
2023-02-24T03:37:48.266Z,64.94
2023-02-24T03:38:48.254Z,63.65
2023-02-24T03:39:48.248Z,58.97
2023-02-24T03:40:48.252Z,62.68
2023-02-24T03:41:48.236Z,57.69
2023-02-24T03:42:48.239Z,70.90
2023-02-24T03:43:48.221Z,66.23
2023-02-24T03:44:48.214Z,59.30
2023-02-24T03:45:48.220Z,63.33
2023-02-24T03:46:48.198Z,65.42
2023-02-24T03:47:48.199Z,64.61
2023-02-24T03:48:48.175Z,67.51
2023-02-24T03:49:48.175Z,67.35
2023-02-24T03:50:48.165Z,66.87
2023-02-24T03:51:48.159Z,55.59
2023-02-24T03:52:48.153Z,65.26
2023-02-24T03:53:48.146Z,64.13
2023-02-24T03:54:48.147Z,62.68
2023-02-24T03:55:48.772Z,69.93
2023-02-24T03:56:48.127Z,64.13
2023-02-24T03:57:48.105Z,65.90
2023-02-24T03:58:48.110Z,65.42
2023-02-24T03:59:48.091Z,62.68
2023-02-24T04:00:48.091Z,67.84
2023-02-24T04:01:48.071Z,62.04
2023-02-24T04:02:49.833Z,60.26
2023-02-24T04:03:48.062Z,62.20
2023-02-24T04:04:48.092Z,63.97
2023-02-24T04:05:48.038Z,65.42
2023-02-24T04:06:48.040Z,65.90
2023-02-24T04:07:48.040Z,60.75
2023-02-24T04:08:48.019Z,65.10
2023-02-24T04:09:48.013Z,65.10
2023-02-24T04:10:47.999Z,61.87
2023-02-24T04:11:47.993Z,71.22
2023-02-24T04:12:48.078Z,67.35
2023-02-24T04:13:47.973Z,54.30
2023-02-24T04:14:47.966Z,62.84
2023-02-24T04:15:47.971Z,66.06
2023-02-24T04:16:47.966Z,66.23
2023-02-24T04:17:47.943Z,63.16
2023-02-24T04:18:47.945Z,63.81
2023-02-24T04:19:47.939Z,67.19
2023-02-24T04:20:47.929Z,65.58
2023-02-24T04:21:47.910Z,70.09
2023-02-24T04:22:47.900Z,68.48
2023-02-24T04:23:47.920Z,70.42
2023-02-24T04:24:47.903Z,78.47
2023-02-24T04:25:47.881Z,68.48
2023-02-24T04:26:47.870Z,61.55
2023-02-24T04:27:47.870Z,73.32
2023-02-24T04:28:47.854Z,72.19
2023-02-24T04:29:47.852Z,67.51
2023-02-24T04:30:47.924Z,65.10
2023-02-24T04:31:47.968Z,65.42
2023-02-24T04:32:47.831Z,65.42
2023-02-24T04:33:47.814Z,74.28
2023-02-24T04:34:47.821Z,65.58
2023-02-24T04:35:47.805Z,67.68
2023-02-24T04:36:47.790Z,70.42
2023-02-24T04:37:47.808Z,68.48
2023-02-24T04:38:47.796Z,65.26
2023-02-24T04:39:47.770Z,76.22
2023-02-24T04:40:47.762Z,62.68
2023-02-24T04:41:47.752Z,67.51
2023-02-24T04:42:47.747Z,69.61
2023-02-24T04:43:47.742Z,69.45
2023-02-24T04:44:47.728Z,66.39
2023-02-24T04:45:47.720Z,73.64
2023-02-24T04:46:47.810Z,69.93
2023-02-24T04:47:47.704Z,71.22
2023-02-24T04:48:47.704Z,68.80
2023-02-24T04:49:47.702Z,66.71
2023-02-24T04:50:47.791Z,67.84
2023-02-24T04:51:47.681Z,70.90
2023-02-24T04:52:47.671Z,70.09
2023-02-24T04:53:47.661Z,73.80
2023-02-24T04:54:47.649Z,69.13
2023-02-24T04:55:47.643Z,67.35
2023-02-24T04:56:47.640Z,67.35
2023-02-24T04:57:47.630Z,66.23
2023-02-24T04:58:47.621Z,70.58
2023-02-24T04:59:47.608Z,65.10
2023-02-24T05:00:47.603Z,69.45
2023-02-24T05:01:47.599Z,71.70
2023-02-24T05:02:47.589Z,72.51
2023-02-24T05:03:47.660Z,72.51
2023-02-24T05:04:47.598Z,66.06
2023-02-24T05:05:47.576Z,69.93
2023-02-24T05:06:47.568Z,63.65
2023-02-24T05:07:47.556Z,68.48
2023-02-24T05:08:47.543Z,68.16
2023-02-24T05:09:47.539Z,63.65
2023-02-24T05:10:47.528Z,68.48
2023-02-24T05:11:47.520Z,69.93
2023-02-24T05:12:47.512Z,68.16
2023-02-24T05:13:48.357Z,67.51
2023-02-24T05:14:47.503Z,67.19
2023-02-24T05:15:48.349Z,63.49
2023-02-24T05:16:47.495Z,76.05
2023-02-24T05:17:49.353Z,70.74
2023-02-24T05:18:47.489Z,67.35
2023-02-24T05:19:47.480Z,74.93
2023-02-24T05:20:47.448Z,76.38
2023-02-24T05:21:48.285Z,67.51
2023-02-24T05:22:48.296Z,67.68
2023-02-24T05:23:47.453Z,67.51
2023-02-24T05:24:47.429Z,71.54
2023-02-24T05:25:47.407Z,78.47
2023-02-24T05:26:47.455Z,72.03
2023-02-24T05:27:47.400Z,68.48
2023-02-24T05:28:47.392Z,67.35
2023-02-24T05:29:47.377Z,66.55
2023-02-24T05:30:47.409Z,71.22
2023-02-24T05:31:47.471Z,70.25
2023-02-24T05:32:47.405Z,68.96
2023-02-24T05:33:47.357Z,66.39
2023-02-24T05:34:47.341Z,65.58
2023-02-24T05:35:47.324Z,73.64
2023-02-24T05:36:48.883Z,70.25
2023-02-24T05:37:47.326Z,72.51
2023-02-24T05:38:47.326Z,70.58
2023-02-24T05:39:47.311Z,78.31
2023-02-24T05:40:47.283Z,69.93
2023-02-24T05:41:47.278Z,65.58
2023-02-24T05:42:47.271Z,67.19
2023-02-24T05:43:47.273Z,68.00
2023-02-24T05:44:47.254Z,68.16
2023-02-24T05:45:47.261Z,69.29
2023-02-24T05:46:47.335Z,69.61
2023-02-24T05:47:47.232Z,70.90
2023-02-24T05:48:47.220Z,70.42
2023-02-24T05:49:47.259Z,71.06
2023-02-24T05:50:47.191Z,79.12
2023-02-24T05:51:48.220Z,72.51
2023-02-24T05:52:47.195Z,72.51
2023-02-24T05:53:47.198Z,72.99
2023-02-24T05:54:47.196Z,70.42
2023-02-24T05:55:47.913Z,71.22
2023-02-24T05:56:47.160Z,72.99
2023-02-24T05:57:47.146Z,71.06
2023-02-24T05:58:47.140Z,68.96
2023-02-24T05:59:47.129Z,69.13
2023-02-24T06:00:47.119Z,72.67
2023-02-24T06:01:47.256Z,68.80
2023-02-24T06:02:47.119Z,70.58
2023-02-24T06:03:47.112Z,78.63
2023-02-24T06:04:47.092Z,77.50
2023-02-24T06:05:51.787Z,69.93
2023-02-24T06:06:47.075Z,71.70
2023-02-24T06:07:47.270Z,69.93
2023-02-24T06:08:48.870Z,69.45
2023-02-24T06:09:47.051Z,71.54
2023-02-24T06:10:56.794Z,71.70
2023-02-24T06:11:48.878Z,73.96
2023-02-24T06:12:50.789Z,71.87
2023-02-24T06:13:49.825Z,73.48
2023-02-24T06:14:47.017Z,71.22
2023-02-24T06:15:46.999Z,72.35
2023-02-24T06:16:47.107Z,76.54
2023-02-24T06:17:46.986Z,71.54
2023-02-24T06:18:46.979Z,72.83
2023-02-24T06:19:46.963Z,74.44
2023-02-24T06:20:46.970Z,76.05
2023-02-24T06:21:47.804Z,74.12
2023-02-24T06:22:46.943Z,75.89
2023-02-24T06:23:46.927Z,76.05
2023-02-24T06:24:46.926Z,78.63
2023-02-24T06:25:46.925Z,72.51
2023-02-24T06:26:46.930Z,76.38
2023-02-24T06:27:46.916Z,72.03
2023-02-24T06:28:46.905Z,71.54
2023-02-24T06:29:46.918Z,75.41
2023-02-24T06:30:46.976Z,74.28
2023-02-24T06:31:46.965Z,73.96
2023-02-24T06:32:46.965Z,75.57
2023-02-24T06:33:46.859Z,73.48
2023-02-24T06:34:46.908Z,74.93
2023-02-24T06:35:46.856Z,73.15
2023-02-24T06:36:46.834Z,76.70
2023-02-24T06:37:46.852Z,78.96
2023-02-24T06:38:46.869Z,73.32
2023-02-24T06:39:46.819Z,77.67
2023-02-24T06:40:46.803Z,74.12
2023-02-24T06:41:46.796Z,72.99
2023-02-24T06:42:46.908Z,74.12
2023-02-24T06:43:46.795Z,76.86
2023-02-24T06:44:46.803Z,69.93
2023-02-24T06:45:46.814Z,71.38
2023-02-24T06:46:46.775Z,74.93
2023-02-24T06:47:46.753Z,76.05
2023-02-24T06:48:46.739Z,76.22
2023-02-24T06:49:46.737Z,71.22
2023-02-24T06:50:46.724Z,71.22
2023-02-24T06:51:46.715Z,73.96
2023-02-24T06:52:46.788Z,76.54
2023-02-24T06:53:46.694Z,74.77
2023-02-24T06:54:47.691Z,74.93
2023-02-24T06:55:46.690Z,72.99
2023-02-24T06:56:46.676Z,75.25
2023-02-24T06:57:46.674Z,73.48
2023-02-24T06:58:48.375Z,72.51
2023-02-24T06:59:47.657Z,72.83
2023-02-24T07:00:46.672Z,72.03
2023-02-24T07:01:47.401Z,74.77
2023-02-24T07:02:46.634Z,74.28
2023-02-24T07:03:46.640Z,72.19
2023-02-24T07:04:46.617Z,75.57
2023-02-24T07:05:46.615Z,73.32
2023-02-24T07:06:46.591Z,72.19
2023-02-24T07:07:46.588Z,70.90
2023-02-24T07:08:46.580Z,70.09
2023-02-24T07:09:46.585Z,74.60
2023-02-24T07:10:46.561Z,73.64
2023-02-24T07:11:46.945Z,71.22
2023-02-24T07:12:47.561Z,70.42
2023-02-24T07:13:46.541Z,70.42
2023-02-24T07:14:46.536Z,73.80
2023-02-24T07:15:46.521Z,75.09
2023-02-24T07:16:46.533Z,70.58
2023-02-24T07:17:47.682Z,74.28
2023-02-24T07:18:47.504Z,76.70
2023-02-24T07:19:46.496Z,72.19
2023-02-24T07:20:46.496Z,75.57
2023-02-24T07:21:46.497Z,73.96
2023-02-24T07:22:46.472Z,73.15
2023-02-24T07:23:46.492Z,75.41
2023-02-24T07:24:46.729Z,71.38
2023-02-24T07:25:46.528Z,69.77
2023-02-24T07:26:47.415Z,72.83
2023-02-24T07:27:48.399Z,71.22
2023-02-24T07:28:48.073Z,70.90
2023-02-24T07:29:48.419Z,72.51
2023-02-24T07:30:49.504Z,72.83
2023-02-24T07:31:47.586Z,72.99
2023-02-24T07:32:47.429Z,72.03
2023-02-24T07:33:46.413Z,71.70
2023-02-24T07:34:46.383Z,73.15
2023-02-24T07:35:46.389Z,74.28
2023-02-24T07:36:46.360Z,70.90
2023-02-24T07:37:46.357Z,72.35
2023-02-24T07:38:46.352Z,70.58
2023-02-24T07:39:46.350Z,72.19
2023-02-24T07:40:46.333Z,71.06
2023-02-24T07:41:46.319Z,74.77
2023-02-24T07:42:46.324Z,72.67
2023-02-24T07:43:46.316Z,76.05
2023-02-24T07:44:46.675Z,69.61
2023-02-24T07:45:46.342Z,71.22
2023-02-24T07:46:46.313Z,73.15
2023-02-24T07:47:46.276Z,71.06
2023-02-24T07:48:46.289Z,73.32
2023-02-24T07:49:46.913Z,72.35
2023-02-24T07:50:46.254Z,76.70
2023-02-24T07:51:46.247Z,74.12
2023-02-24T07:52:46.235Z,72.19
2023-02-24T07:53:46.223Z,74.28
2023-02-24T07:54:46.222Z,72.83
2023-02-24T07:55:46.212Z,71.54
2023-02-24T07:56:46.268Z,73.48
2023-02-24T07:57:46.200Z,73.32
2023-02-24T07:58:46.186Z,70.74
2023-02-24T07:59:46.177Z,72.03
2023-02-24T08:00:46.163Z,71.54
2023-02-24T08:01:46.181Z,72.03
2023-02-24T08:02:46.249Z,72.35
2023-02-24T08:03:46.147Z,74.93
2023-02-24T08:04:46.136Z,72.19
2023-02-24T08:05:46.175Z,70.42
2023-02-24T08:06:47.960Z,70.09
2023-02-24T08:07:47.115Z,73.80
2023-02-24T08:08:46.104Z,67.03
2023-02-24T08:09:46.492Z,69.61
2023-02-24T08:10:46.097Z,71.06
2023-02-24T08:11:46.088Z,70.74
2023-02-24T08:12:46.073Z,73.15
2023-02-24T08:13:47.905Z,71.54
2023-02-24T08:14:46.063Z,70.09
2023-02-24T08:17:52.899Z,70.90
2023-02-24T08:18:54.768Z,76.70
2023-02-24T08:19:53.958Z,72.35
2023-02-24T08:20:53.976Z,78.15
2023-02-24T08:21:53.965Z,71.54
2023-02-24T08:22:53.938Z,72.03
2023-02-24T08:23:53.928Z,73.96
2023-02-24T08:24:53.912Z,74.44
2023-02-24T08:25:53.941Z,73.64
2023-02-24T08:26:53.895Z,68.96
2023-02-24T08:28:06.356Z,69.45
2023-02-24T08:28:55.888Z,72.03
2023-02-24T08:29:53.954Z,69.13
2023-02-24T08:30:53.995Z,72.51
2023-02-24T08:31:53.966Z,72.35
2023-02-24T08:32:53.923Z,72.03
2023-02-24T08:33:53.864Z,71.06
2023-02-24T08:34:54.830Z,70.42
2023-02-24T08:35:53.819Z,73.80
2023-02-24T08:36:54.831Z,73.96
2023-02-24T08:37:53.823Z,73.48
2023-02-24T08:38:53.797Z,76.22
2023-02-24T08:39:53.790Z,70.42
2023-02-24T08:40:53.795Z,70.25
2023-02-24T08:41:53.882Z,69.29
2023-02-24T08:42:53.763Z,69.77
2023-02-24T08:43:53.769Z,69.77
2023-02-24T08:44:53.770Z,73.96
2023-02-24T08:45:53.742Z,69.93
2023-02-24T08:46:53.865Z,69.93
2023-02-24T08:47:53.751Z,68.00
2023-02-24T08:48:53.722Z,69.61
2023-02-24T08:49:53.730Z,72.83
2023-02-24T08:50:53.719Z,71.38
2023-02-24T08:51:54.265Z,71.06
2023-02-24T08:52:54.272Z,70.90
2023-02-24T08:53:53.698Z,72.51
2023-02-24T08:54:53.676Z,72.35
2023-02-24T08:55:53.670Z,70.25
2023-02-24T08:56:53.662Z,71.06
2023-02-24T08:57:53.825Z,69.61
2023-02-24T08:58:54.652Z,72.35
2023-02-24T08:59:55.378Z,70.58
2023-02-24T09:00:53.677Z,71.54
2023-02-24T09:02:04.388Z,72.35
2023-02-24T09:02:56.315Z,70.25
2023-02-24T09:03:54.270Z,75.25
2023-02-24T09:04:53.622Z,68.80
2023-02-24T09:05:53.590Z,71.22
2023-02-24T09:06:57.688Z,69.93
2023-02-24T09:07:54.841Z,68.96
2023-02-24T09:08:53.566Z,69.13
2023-02-24T09:09:53.572Z,68.32
2023-02-24T09:10:53.556Z,70.90
2023-02-24T09:11:53.555Z,69.13
2023-02-24T09:12:53.578Z,69.93
2023-02-24T09:13:53.572Z,70.42
2023-02-24T09:14:53.507Z,68.00
2023-02-24T09:15:53.631Z,73.96
2023-02-24T09:16:53.521Z,73.32
2023-02-24T09:17:53.506Z,74.60
2023-02-24T09:18:54.348Z,70.09
2023-02-24T09:19:53.502Z,70.25
2023-02-24T09:20:53.468Z,70.42
2023-02-24T09:21:53.450Z,74.28
2023-02-24T09:22:53.442Z,73.48
2023-02-24T09:23:53.449Z,72.67
2023-02-24T09:24:53.423Z,70.42
2023-02-24T09:25:53.417Z,68.00
2023-02-24T09:26:53.428Z,88.62
2023-02-24T09:27:53.428Z,72.99
2023-02-24T09:28:53.420Z,69.61
2023-02-24T09:29:53.380Z,68.00
2023-02-24T09:30:53.773Z,70.25
2023-02-24T09:31:53.466Z,70.42
2023-02-24T09:32:54.546Z,69.93
2023-02-24T09:33:53.364Z,72.99
2023-02-24T09:34:53.344Z,71.87
2023-02-24T09:35:53.333Z,69.13
2023-02-24T09:36:53.325Z,71.38
2023-02-24T09:37:53.327Z,72.19
2023-02-24T09:38:53.303Z,69.29
2023-02-24T09:39:53.343Z,69.61
2023-02-24T09:40:53.345Z,68.96
2023-02-24T09:41:53.375Z,72.35
2023-02-24T09:42:53.295Z,72.35
2023-02-24T09:43:53.276Z,68.80
2023-02-24T09:44:53.279Z,68.64
2023-02-24T09:45:53.401Z,72.99
2023-02-24T09:46:53.410Z,69.93
2023-02-24T09:47:53.242Z,70.74
2023-02-24T09:48:53.232Z,70.42
2023-02-24T09:49:53.217Z,69.77
2023-02-24T09:51:02.496Z,68.64
2023-02-24T09:51:55.226Z,69.13
2023-02-24T09:52:57.576Z,67.51
2023-02-24T09:53:56.934Z,70.90
2023-02-24T09:54:53.195Z,71.06
2023-02-24T09:55:53.175Z,72.19
2023-02-24T09:56:53.171Z,69.77
2023-02-24T09:57:53.160Z,69.61
2023-02-24T09:58:53.229Z,68.32
2023-02-24T09:59:53.161Z,72.67
2023-02-24T10:00:53.154Z,69.29
2023-02-24T10:01:53.199Z,71.06
2023-02-24T10:02:53.140Z,69.13
2023-02-24T10:03:53.128Z,70.74
2023-02-24T10:04:53.117Z,75.57
2023-02-24T10:05:53.096Z,70.58
2023-02-24T10:06:53.083Z,65.58
2023-02-24T10:07:53.094Z,67.51
2023-02-24T10:08:53.139Z,70.42
2023-02-24T10:09:53.072Z,70.09
2023-02-24T10:10:53.056Z,68.48
2023-02-24T10:11:53.079Z,67.84
2023-02-24T10:12:53.091Z,67.84
2023-02-24T10:13:54.046Z,67.35
2023-02-24T10:14:53.791Z,71.87
2023-02-24T10:15:56.962Z,68.00
2023-02-24T10:16:54.834Z,69.77
2023-02-24T10:17:53.001Z,69.61
2023-02-24T10:18:53.006Z,72.19
2023-02-24T10:19:52.993Z,71.54
2023-02-24T10:20:53.910Z,92.81
2023-02-24T10:21:52.971Z,71.38
2023-02-24T10:22:52.980Z,73.64
2023-02-24T10:23:54.847Z,71.54
2023-02-24T10:24:54.001Z,69.93
2023-02-24T10:25:52.959Z,67.19
2023-02-24T10:27:00.710Z,71.54
2023-02-24T10:27:56.893Z,68.80
2023-02-24T10:28:54.895Z,68.96
2023-02-24T10:29:52.906Z,69.77
2023-02-24T10:30:52.993Z,69.45
2023-02-24T10:31:53.176Z,77.67
2023-02-24T10:32:53.055Z,77.99
2023-02-24T10:33:52.880Z,77.67
2023-02-24T10:34:52.858Z,77.50
2023-02-24T10:35:52.857Z,78.47
2023-02-24T10:36:52.852Z,74.93
2023-02-24T10:37:52.849Z,69.61
2023-02-24T10:38:52.834Z,69.93
2023-02-24T10:39:52.821Z,69.61
2023-02-24T10:40:52.847Z,73.80
2023-02-24T10:41:52.964Z,70.74
2023-02-24T10:42:52.811Z,68.32
2023-02-24T10:43:52.861Z,74.28
2023-02-24T10:45:01.417Z,69.45
2023-02-24T10:45:54.843Z,70.74
2023-02-24T10:46:52.863Z,67.51
2023-02-24T10:47:52.763Z,69.93
2023-02-24T10:48:52.896Z,69.77
2023-02-24T10:49:52.756Z,80.41
2023-02-24T10:50:56.466Z,75.25
2023-02-24T10:51:53.742Z,69.29
2023-02-24T10:52:53.301Z,70.25
2023-02-24T10:53:56.356Z,70.90
2023-02-24T10:54:54.756Z,69.93
2023-02-24T10:55:54.406Z,73.96
2023-02-24T10:56:52.696Z,73.64
2023-02-24T10:57:58.970Z,69.13
2023-02-24T10:58:54.676Z,68.80
2023-02-24T10:59:53.440Z,70.74
2023-02-24T11:00:52.666Z,68.00
2023-02-24T11:01:52.819Z,68.32
2023-02-24T11:02:52.680Z,72.03
2023-02-24T11:03:52.637Z,68.64
2023-02-24T11:04:52.617Z,69.13
2023-02-24T11:05:52.618Z,77.18
2023-02-24T11:06:54.410Z,73.64
2023-02-24T11:07:53.316Z,72.83
2023-02-24T11:08:52.605Z,72.35
2023-02-24T11:09:52.669Z,69.45
2023-02-24T11:10:52.604Z,68.48
2023-02-24T11:11:52.579Z,70.74
2023-02-24T11:13:00.891Z,71.06
2023-02-24T11:13:54.630Z,69.45
2023-02-24T11:14:52.544Z,67.68
2023-02-24T11:15:52.575Z,71.54
2023-02-24T11:16:52.527Z,70.90
2023-02-24T11:17:52.542Z,67.84
2023-02-24T11:18:52.508Z,75.73
2023-02-24T11:19:52.500Z,70.09
2023-02-24T11:20:52.490Z,89.59
2023-02-24T11:21:52.486Z,73.64
2023-02-24T11:22:52.492Z,69.61
2023-02-24T11:23:52.475Z,70.58
2023-02-24T11:24:53.313Z,71.22
2023-02-24T11:27:39.860Z,72.03
2023-02-24T11:28:39.869Z,72.19
2023-02-24T11:29:40.942Z,68.00
2023-02-24T11:30:41.106Z,70.42
2023-02-24T11:31:41.232Z,69.77
2023-02-24T11:32:47.808Z,69.29
2023-02-24T11:33:46.820Z,71.38
2023-02-24T11:34:40.920Z,74.60
2023-02-24T11:35:40.900Z,72.51
2023-02-24T11:36:40.896Z,71.87
2023-02-24T11:37:43.147Z,68.00
2023-02-24T11:38:41.878Z,69.13
2023-02-24T11:39:40.869Z,69.93
2023-02-24T11:40:41.738Z,70.25
2023-02-24T11:41:40.867Z,70.58
2023-02-24T11:42:40.850Z,69.29
2023-02-24T11:43:40.849Z,68.64
2023-02-24T11:44:40.838Z,68.64
2023-02-24T11:45:40.859Z,69.93
2023-02-24T11:46:41.397Z,67.51
2023-02-24T11:47:40.818Z,69.13
2023-02-24T11:48:40.792Z,68.00
2023-02-24T11:49:40.792Z,72.19
2023-02-24T11:50:40.779Z,67.68
2023-02-24T11:51:40.789Z,69.45
2023-02-24T11:52:40.789Z,74.28
2023-02-24T11:53:40.791Z,72.51
2023-02-24T11:54:40.751Z,72.03
2023-02-24T11:55:40.741Z,68.16
2023-02-24T11:56:40.762Z,72.03
2023-02-24T11:57:40.723Z,71.22
2023-02-24T11:58:40.767Z,72.83
2023-02-24T11:59:40.725Z,69.45
2023-02-24T12:00:47.984Z,72.35
2023-02-24T12:01:43.741Z,69.13
2023-02-24T12:02:41.741Z,70.90
2023-02-24T12:03:40.683Z,75.09
2023-02-24T12:04:40.686Z,70.90
2023-02-24T12:05:40.726Z,69.45
2023-02-24T12:06:45.253Z,70.25
2023-02-24T12:10:16.108Z,69.13
2023-02-24T12:11:07.077Z,69.61
2023-02-24T12:12:04.586Z,76.05
2023-02-24T12:13:04.571Z,69.13
2023-02-24T12:14:07.068Z,69.45
2023-02-24T12:15:04.154Z,72.99
2023-02-24T12:16:04.201Z,70.09
2023-02-24T12:17:04.192Z,69.77
2023-02-24T12:18:04.130Z,71.70
2023-02-24T12:19:04.123Z,71.38
2023-02-24T12:20:04.116Z,70.90
2023-02-24T12:21:04.103Z,71.22
2023-02-24T12:22:04.096Z,75.57
2023-02-24T12:23:04.085Z,72.51
2023-02-24T12:24:04.084Z,74.28
2023-02-24T12:25:05.051Z,74.93
2023-02-24T12:26:04.064Z,71.38
2023-02-24T12:27:04.066Z,71.54
2023-02-24T12:28:04.073Z,67.03
2023-02-24T12:29:04.049Z,73.80
2023-02-24T12:30:04.032Z,74.28
2023-02-24T12:31:04.132Z,71.38
2023-02-24T12:32:04.151Z,68.64
2023-02-24T12:33:04.067Z,71.06
2023-02-24T12:34:03.999Z,67.19
2023-02-24T12:35:05.552Z,70.74
2023-02-24T12:36:05.996Z,69.13
2023-02-24T12:37:05.583Z,69.45
2023-02-24T12:38:05.580Z,69.45
2023-02-24T12:39:07.589Z,69.77
2023-02-24T12:40:05.572Z,69.29
2023-02-24T12:41:05.556Z,69.45
2023-02-24T12:42:03.951Z,70.90
2023-02-24T12:43:03.923Z,69.61
2023-02-24T12:44:03.911Z,85.24
2023-02-24T12:45:05.000Z,72.19
2023-02-24T12:46:05.033Z,67.19
2023-02-24T12:47:04.984Z,68.00
2023-02-24T12:48:05.015Z,67.68
2023-02-24T12:49:04.975Z,66.23
2023-02-24T12:50:04.961Z,70.42
2023-02-24T12:51:04.963Z,67.84
2023-02-24T12:52:04.948Z,69.29
2023-02-24T12:53:04.929Z,69.77
2023-02-24T12:54:04.918Z,72.99
2023-02-24T12:55:04.937Z,70.74
2023-02-24T12:56:04.912Z,75.09
2023-02-24T12:57:04.913Z,68.96
2023-02-24T12:58:04.885Z,69.45
2023-02-24T12:59:04.919Z,69.45
2023-02-24T13:00:04.879Z,75.73
2023-02-24T13:01:04.891Z,69.13
2023-02-24T13:02:04.908Z,67.35